createdAt,value
2019-04-25T00:00:23.059Z,100.00
2019-04-25T00:02:52.591Z,100.00
2019-04-25T00:05:22.356Z,100.00
2019-04-25T00:07:51.861Z,100.00
2019-04-25T00:10:22.054Z,100.00
2019-04-25T00:12:51.850Z,100.00
2019-04-25T00:15:22.395Z,100.00
2019-04-25T00:17:52.242Z,100.00
2019-04-25T00:20:22.041Z,100.00
2019-04-25T00:22:53.426Z,100.00
2019-04-25T00:25:31.399Z,100.00
2019-04-25T00:28:01.846Z,100.00
2019-04-25T00:30:33.045Z,100.00
2019-04-25T00:33:02.539Z,100.00
2019-04-25T00:35:32.279Z,100.00
2019-04-25T00:38:02.368Z,100.00
2019-04-25T00:40:32.056Z,100.00
2019-04-25T00:43:01.705Z,100.00
2019-04-25T00:45:31.739Z,100.00
2019-04-25T00:48:03.962Z,100.00
2019-04-25T00:50:32.819Z,100.00
2019-04-25T00:53:02.292Z,100.00
2019-04-25T00:55:31.914Z,100.00
2019-04-25T00:58:05.744Z,100.00
2019-04-25T01:00:36.964Z,100.00
2019-04-25T01:03:11.524Z,100.00
2019-04-25T01:05:42.478Z,100.00
2019-04-25T01:08:12.499Z,100.00
2019-04-25T01:10:42.000Z,100.00
2019-04-25T01:13:11.667Z,100.00
2019-04-25T01:15:42.510Z,100.00
2019-04-25T01:18:12.305Z,100.00
2019-04-25T01:20:43.344Z,100.00
2019-04-25T01:23:13.784Z,100.00
2019-04-25T01:25:44.713Z,100.00
2019-04-25T01:28:14.597Z,100.00
2019-04-25T01:30:44.159Z,100.00
2019-04-25T01:33:13.975Z,100.00
2019-04-25T01:35:46.209Z,100.00
2019-04-25T01:38:16.454Z,100.00
2019-04-25T01:40:48.536Z,100.00
2019-04-25T01:43:20.532Z,100.00
2019-04-25T01:45:50.075Z,100.00
2019-04-25T01:48:19.637Z,100.00
2019-04-25T01:50:49.624Z,100.00
2019-04-25T01:53:19.957Z,100.00
2019-04-25T01:55:55.894Z,100.00
2019-04-25T01:58:20.763Z,100.00
2019-04-25T02:00:54.573Z,100.00
2019-04-25T02:03:26.997Z,100.00
2019-04-25T02:05:55.235Z,100.00
2019-04-25T02:08:25.587Z,100.00
2019-04-25T02:10:57.837Z,100.00
2019-04-25T02:13:27.584Z,100.00
2019-04-25T02:15:57.232Z,100.00
2019-04-25T02:18:26.719Z,100.00
2019-04-25T02:20:59.104Z,100.00
2019-04-25T02:23:27.397Z,100.00
2019-04-25T02:26:08.956Z,100.00
2019-04-25T02:28:28.140Z,100.00
2019-04-25T02:31:00.611Z,100.00
2019-04-25T02:33:29.090Z,100.00
2019-04-25T02:36:00.975Z,100.00
2019-04-25T02:38:29.800Z,100.00
2019-04-25T02:41:01.939Z,100.00
2019-04-25T02:43:30.569Z,100.00
2019-04-25T02:46:08.983Z,100.00
2019-04-25T02:48:49.729Z,100.00
2019-04-25T02:51:24.579Z,100.00
2019-04-25T02:53:56.202Z,100.00
2019-04-25T02:56:33.662Z,100.00
2019-04-25T02:58:58.509Z,100.00
2019-04-25T03:01:28.143Z,100.00
2019-04-25T03:03:59.206Z,100.00
2019-04-25T03:06:29.020Z,100.00
2019-04-25T03:09:00.131Z,100.00
2019-04-25T03:11:29.791Z,100.00
2019-04-25T03:14:00.546Z,100.00
2019-04-25T03:16:30.346Z,100.00
2019-04-25T03:19:02.899Z,100.00
2019-04-25T03:21:39.732Z,100.00
2019-04-25T03:24:12.932Z,100.00
2019-04-25T03:26:40.810Z,100.00
2019-04-25T03:29:10.394Z,100.00
2019-04-25T03:31:39.947Z,100.00
2019-04-25T03:34:14.050Z,100.00
2019-04-25T03:36:40.712Z,100.00
2019-04-25T03:39:10.194Z,100.00
2019-04-25T03:41:39.674Z,100.00
2019-04-25T03:44:10.041Z,100.00
2019-04-25T03:46:39.669Z,100.00
2019-04-25T03:49:09.698Z,100.00
2019-04-25T03:51:39.236Z,100.00
2019-04-25T03:54:10.607Z,100.00
2019-04-25T03:56:49.850Z,100.00
2019-04-25T03:59:11.332Z,100.00
2019-04-25T04:01:40.822Z,100.00
2019-04-25T04:04:11.086Z,100.00
2019-04-25T04:06:40.694Z,100.00
2019-04-25T04:09:10.195Z,100.00
2019-04-25T04:11:39.684Z,100.00
2019-04-25T04:14:09.217Z,100.00
2019-04-25T04:16:40.367Z,100.00
2019-04-25T04:19:10.609Z,100.00
2019-04-25T04:21:50.680Z,100.00
2019-04-25T04:24:21.829Z,100.00
2019-04-25T04:27:12.023Z,100.00
2019-04-25T04:29:43.106Z,100.00
2019-04-25T04:32:14.393Z,100.00
2019-04-25T04:34:45.495Z,100.00
2019-04-25T04:37:16.206Z,100.00
2019-04-25T04:39:45.795Z,100.00
2019-04-25T04:42:16.110Z,100.00
2019-04-25T04:44:45.681Z,100.00
2019-04-25T04:47:15.506Z,100.00
2019-04-25T04:49:45.206Z,100.00
2019-04-25T04:52:15.789Z,100.00
2019-04-25T04:54:45.342Z,100.00
2019-04-25T04:57:26.640Z,100.00
2019-04-25T04:59:46.034Z,100.00
2019-04-25T05:02:27.459Z,100.00
2019-04-25T05:04:58.578Z,100.00
2019-04-25T05:07:47.311Z,100.00
2019-04-25T05:10:18.649Z,100.00
2019-04-25T05:12:48.071Z,100.00
2019-04-25T05:15:18.935Z,100.00
2019-04-25T05:17:48.707Z,100.00
2019-04-25T05:20:18.878Z,100.00
2019-04-25T05:22:48.518Z,100.00
2019-04-25T05:25:19.053Z,100.00
2019-04-25T05:27:59.642Z,100.00
2019-04-25T05:30:23.968Z,100.00
2019-04-25T05:32:54.337Z,100.00
2019-04-25T05:35:24.416Z,100.00
2019-04-25T05:37:54.842Z,100.00
2019-04-25T05:40:25.364Z,100.00
2019-04-25T05:42:56.539Z,100.00
2019-04-25T05:45:27.818Z,100.00
2019-04-25T05:47:57.304Z,100.00
2019-04-25T05:50:26.793Z,100.00
2019-04-25T05:52:56.288Z,100.00
2019-04-25T05:55:26.569Z,100.00
2019-04-25T05:57:56.072Z,100.00
2019-04-25T06:00:26.043Z,100.00
2019-04-25T06:02:56.336Z,100.00
2019-04-25T06:05:27.230Z,99.13
2019-04-25T06:07:56.980Z,97.44
2019-04-25T06:10:33.887Z,98.11
2019-04-25T06:13:04.137Z,97.41
2019-04-25T06:15:35.200Z,96.50
2019-04-25T06:18:13.892Z,94.97
2019-04-25T06:20:44.280Z,94.67
2019-04-25T06:23:25.585Z,94.29
2019-04-25T06:25:55.263Z,96.63
2019-04-25T06:28:29.042Z,93.31
2019-04-25T06:30:58.543Z,93.77
2019-04-25T06:33:29.045Z,94.30
2019-04-25T06:35:58.562Z,94.35
2019-04-25T06:38:28.390Z,92.30
2019-04-25T06:40:57.912Z,94.89
2019-04-25T06:43:28.007Z,95.25
2019-04-25T06:46:15.414Z,94.50
2019-04-25T06:48:46.613Z,92.90
2019-04-25T06:51:16.202Z,94.16
2019-04-25T06:53:45.724Z,91.84
2019-04-25T06:56:15.312Z,90.16
2019-04-25T06:58:44.879Z,89.71
2019-04-25T07:01:14.463Z,88.58
2019-04-25T07:03:44.269Z,87.87
2019-04-25T07:06:14.817Z,86.32
2019-04-25T07:08:44.844Z,84.28
2019-04-25T07:11:14.490Z,83.85
2019-04-25T07:13:44.025Z,84.55
2019-04-25T07:16:13.651Z,86.66
2019-04-25T07:18:43.672Z,84.42
2019-04-25T07:21:14.183Z,83.85
2019-04-25T07:23:46.196Z,81.12
2019-04-25T07:26:17.294Z,84.21
2019-04-25T07:29:00.020Z,80.61
2019-04-25T07:31:37.064Z,81.73
2019-04-25T07:34:08.295Z,82.81
2019-04-25T07:36:37.797Z,81.76
2019-04-25T07:39:10.734Z,79.27
2019-04-25T07:41:40.441Z,71.55
2019-04-25T07:44:10.005Z,66.11
2019-04-25T07:46:40.180Z,68.51
2019-04-25T07:49:09.910Z,64.83
2019-04-25T07:51:39.565Z,64.18
2019-04-25T07:54:09.183Z,64.54
2019-04-25T07:56:38.749Z,66.94
2019-04-25T07:59:08.705Z,71.84
2019-04-25T08:01:39.089Z,72.74
2019-04-25T08:04:08.684Z,71.80
2019-04-25T08:06:38.325Z,71.91
2019-04-25T08:09:11.276Z,69.02
2019-04-25T08:11:41.102Z,66.64
2019-04-25T08:14:12.311Z,67.29
2019-04-25T08:16:55.795Z,71.96
2019-04-25T08:19:26.425Z,72.14
2019-04-25T08:21:57.024Z,73.02
2019-04-25T08:24:27.076Z,75.44
2019-04-25T08:26:57.243Z,73.45
2019-04-25T08:29:26.782Z,71.70
2019-04-25T08:31:56.433Z,64.63
2019-04-25T08:34:25.997Z,64.61
2019-04-25T08:36:55.487Z,62.52
2019-04-25T08:39:25.131Z,63.81
2019-04-25T08:41:54.627Z,67.70
2019-04-25T08:44:24.272Z,63.78
2019-04-25T08:46:53.939Z,58.24
2019-04-25T08:49:25.091Z,57.25
2019-04-25T08:51:56.485Z,58.79
2019-04-25T08:54:31.211Z,53.72
2019-04-25T08:57:04.318Z,53.49
2019-04-25T08:59:50.508Z,58.13
2019-04-25T09:02:29.922Z,62.82
2019-04-25T09:05:19.021Z,64.95
2019-04-25T09:07:48.584Z,65.28
2019-04-25T09:10:18.111Z,64.85
2019-04-25T09:12:47.750Z,67.24
2019-04-25T09:15:17.374Z,67.62
2019-04-25T09:17:47.255Z,66.97
2019-04-25T09:20:17.258Z,66.65
2019-04-25T09:22:46.762Z,68.07
2019-04-25T09:25:17.574Z,68.70
2019-04-25T09:27:47.118Z,68.16
2019-04-25T09:30:16.872Z,67.59
2019-04-25T09:32:46.369Z,66.86
2019-04-25T09:35:15.952Z,65.95
2019-04-25T09:37:46.239Z,66.40
2019-04-25T09:40:17.369Z,68.02
2019-04-25T09:42:47.150Z,68.26
2019-04-25T09:45:25.860Z,67.57
2019-04-25T09:47:55.984Z,67.32
2019-04-25T09:50:34.002Z,63.38
2019-04-25T09:53:04.552Z,61.64
2019-04-25T09:55:39.899Z,59.37
2019-04-25T09:58:17.057Z,58.58
2019-04-25T10:00:48.279Z,56.24
2019-04-25T10:03:17.905Z,57.86
2019-04-25T10:05:47.568Z,56.58
2019-04-25T10:08:17.050Z,57.05
2019-04-25T10:10:46.724Z,60.88
2019-04-25T10:13:16.323Z,60.76
2019-04-25T10:15:59.230Z,59.36
2019-04-25T10:18:28.799Z,55.79
2019-04-25T10:20:58.351Z,56.24
2019-04-25T10:23:27.899Z,55.82
2019-04-25T10:25:57.613Z,53.01
2019-04-25T10:28:28.001Z,51.22
2019-04-25T10:30:57.671Z,52.14
2019-04-25T10:33:27.667Z,50.19
2019-04-25T10:36:00.566Z,46.74
2019-04-25T10:38:28.648Z,41.54
2019-04-25T10:40:58.295Z,39.95
2019-04-25T10:43:28.051Z,39.69
2019-04-25T10:45:57.685Z,40.36
2019-04-25T10:48:27.361Z,46.03
2019-04-25T10:50:56.923Z,47.03
2019-04-25T10:53:26.501Z,48.87
2019-04-25T10:55:55.991Z,49.92
2019-04-25T10:58:25.659Z,50.36
2019-04-25T11:00:55.297Z,51.93
2019-04-25T11:03:27.753Z,51.50
2019-04-25T11:05:57.747Z,54.67
2019-04-25T11:08:27.288Z,53.80
2019-04-25T11:10:58.790Z,53.23
2019-04-25T11:13:28.709Z,52.18
2019-04-25T11:15:58.491Z,51.36
2019-04-25T11:18:28.057Z,50.40
2019-04-25T11:20:57.609Z,48.98
2019-04-25T11:23:27.217Z,47.13
2019-04-25T11:25:56.842Z,45.97
2019-04-25T11:28:26.458Z,43.60
2019-04-25T11:30:56.970Z,42.70
2019-04-25T11:33:27.032Z,41.98
2019-04-25T11:35:56.629Z,41.00
2019-04-25T11:38:30.753Z,41.00
2019-04-25T11:41:09.914Z,39.26
2019-04-25T11:43:39.478Z,41.06
2019-04-25T11:46:09.054Z,40.83
2019-04-25T11:48:38.672Z,41.97
2019-04-25T11:51:08.453Z,38.83
2019-04-25T11:53:38.004Z,38.64
2019-04-25T11:56:07.565Z,37.72
2019-04-25T11:58:37.157Z,39.69
2019-04-25T12:01:07.469Z,38.33
2019-04-25T12:03:36.975Z,39.16
2019-04-25T12:06:06.785Z,41.07
2019-04-25T12:08:36.300Z,41.32
2019-04-25T12:11:06.058Z,40.77
2019-04-25T12:13:35.621Z,41.51
2019-04-25T12:16:05.263Z,41.21
2019-04-25T12:18:35.455Z,42.55
2019-04-25T12:21:05.056Z,42.11
2019-04-25T12:23:34.631Z,42.84
2019-04-25T12:26:04.347Z,41.43
2019-04-25T12:28:33.925Z,41.43
2019-04-25T12:31:03.438Z,41.12
2019-04-25T12:33:32.917Z,42.52
2019-04-25T12:36:02.428Z,43.24
2019-04-25T12:38:33.452Z,42.68
2019-04-25T12:41:04.113Z,44.19
2019-04-25T12:43:36.552Z,41.97
2019-04-25T12:46:08.761Z,42.81
2019-04-25T12:48:38.473Z,42.07
2019-04-25T12:51:08.132Z,39.27
2019-04-25T12:53:37.639Z,40.68
2019-04-25T12:56:07.158Z,39.45
2019-04-25T12:58:36.732Z,39.41
2019-04-25T13:01:07.504Z,39.06
2019-04-25T13:03:36.987Z,40.10
2019-04-25T13:06:06.565Z,40.83
2019-04-25T13:08:36.045Z,41.55
2019-04-25T13:11:08.560Z,42.27
2019-04-25T13:13:36.828Z,40.89
2019-04-25T13:16:07.361Z,39.37
2019-04-25T13:18:36.874Z,41.60
2019-04-25T13:21:06.368Z,42.42
2019-04-25T13:23:35.942Z,42.25
2019-04-25T13:26:05.584Z,43.27
2019-04-25T13:28:49.625Z,41.23
2019-04-25T13:31:20.766Z,41.00
2019-04-25T13:34:01.668Z,42.69
2019-04-25T13:36:32.967Z,41.18
2019-04-25T13:39:07.210Z,41.79
2019-04-25T13:41:36.702Z,41.22
2019-04-25T13:44:07.127Z,41.06
2019-04-25T13:46:37.267Z,40.78
2019-04-25T13:49:06.945Z,39.77
2019-04-25T13:51:36.445Z,39.37
2019-04-25T13:54:06.255Z,40.10
2019-04-25T13:56:40.408Z,39.55
2019-04-25T13:59:07.944Z,39.18
2019-04-25T14:01:37.484Z,41.50
2019-04-25T14:04:07.122Z,39.46
2019-04-25T14:06:36.741Z,41.39
2019-04-25T14:09:09.612Z,38.35
2019-04-25T14:11:39.146Z,37.99
2019-04-25T14:14:08.717Z,38.65
2019-04-25T14:16:38.083Z,37.03
2019-04-25T14:19:10.366Z,37.78
2019-04-25T14:21:40.132Z,38.56
2019-04-25T14:24:19.855Z,38.84
2019-04-25T14:26:40.927Z,38.85
2019-04-25T14:29:10.412Z,40.00
2019-04-25T14:31:45.835Z,40.76
2019-04-25T14:34:11.131Z,40.00
2019-04-25T14:36:40.689Z,41.20
2019-04-25T14:39:10.555Z,42.31
2019-04-25T14:41:43.096Z,42.09
2019-04-25T14:44:12.741Z,42.36
2019-04-25T14:46:42.237Z,42.03
2019-04-25T14:49:11.954Z,40.96
2019-04-25T14:51:41.523Z,43.85
2019-04-25T14:54:12.668Z,42.82
2019-04-25T14:56:43.784Z,43.33
2019-04-25T14:59:13.973Z,41.40
2019-04-25T15:01:45.222Z,42.18
2019-04-25T15:04:14.945Z,40.06
2019-04-25T15:06:44.449Z,40.36
2019-04-25T15:09:14.079Z,41.05
2019-04-25T15:11:43.663Z,39.82
2019-04-25T15:14:13.235Z,40.51
2019-04-25T15:16:42.904Z,41.60
2019-04-25T15:19:12.476Z,41.30
2019-04-25T15:21:42.197Z,41.16
2019-04-25T15:24:11.770Z,41.02
2019-04-25T15:26:41.396Z,40.81
2019-04-25T15:29:10.971Z,41.75
2019-04-25T15:31:40.594Z,42.11
2019-04-25T15:34:10.227Z,42.39
2019-04-25T15:36:41.349Z,42.42
2019-04-25T15:39:28.906Z,44.85
2019-04-25T15:42:00.003Z,43.79
2019-04-25T15:44:47.035Z,44.65
2019-04-25T15:47:18.261Z,44.48
2019-04-25T15:49:47.750Z,44.00
2019-04-25T15:52:17.491Z,45.42
2019-04-25T15:54:47.048Z,45.34
2019-04-25T15:57:16.601Z,45.95
2019-04-25T15:59:46.104Z,44.41
2019-04-25T16:02:16.171Z,44.54
2019-04-25T16:04:45.710Z,44.38
2019-04-25T16:07:15.762Z,44.87
2019-04-25T16:09:45.289Z,43.98
2019-04-25T16:12:15.254Z,44.68
2019-04-25T16:14:44.785Z,45.48
2019-04-25T16:17:14.373Z,44.50
2019-04-25T16:19:43.947Z,42.45
2019-04-25T16:22:13.507Z,42.93
2019-04-25T16:24:42.970Z,44.51
2019-04-25T16:27:12.933Z,46.12
2019-04-25T16:29:42.476Z,44.41
2019-04-25T16:32:20.538Z,45.12
2019-04-25T16:34:44.888Z,45.64
2019-04-25T16:37:14.728Z,45.90
2019-04-25T16:39:44.991Z,46.15
2019-04-25T16:42:14.830Z,47.97
2019-04-25T16:44:44.385Z,47.08
2019-04-25T16:47:15.573Z,47.99
2019-04-25T16:49:45.121Z,47.73
2019-04-25T16:52:17.547Z,48.88
2019-04-25T16:54:46.302Z,49.46
2019-04-25T16:57:15.948Z,49.57
2019-04-25T16:59:45.656Z,49.43
2019-04-25T17:02:15.817Z,50.26
2019-04-25T17:04:45.361Z,50.67
2019-04-25T17:07:15.148Z,51.55
2019-04-25T17:09:44.766Z,52.30
2019-04-25T17:12:14.584Z,51.56
2019-04-25T17:14:54.532Z,52.33
2019-04-25T17:17:40.524Z,53.36
2019-04-25T17:20:16.059Z,54.25
2019-04-25T17:22:47.931Z,54.76
2019-04-25T17:25:17.688Z,55.25
2019-04-25T17:27:47.187Z,55.42
2019-04-25T17:30:17.674Z,54.94
2019-04-25T17:33:04.866Z,55.70
2019-04-25T17:35:48.077Z,56.60
2019-04-25T17:38:19.533Z,57.60
2019-04-25T17:40:49.144Z,57.25
2019-04-25T17:43:18.686Z,57.51
2019-04-25T17:45:48.840Z,58.22
2019-04-25T17:48:18.388Z,58.52
2019-04-25T17:50:47.949Z,59.76
2019-04-25T17:53:17.448Z,60.11
2019-04-25T17:55:46.972Z,60.05
2019-04-25T17:58:16.519Z,60.49
2019-04-25T18:00:47.914Z,60.33
2019-04-25T18:03:17.638Z,62.25
2019-04-25T18:05:53.059Z,62.38
2019-04-25T18:08:23.813Z,60.79
2019-04-25T18:10:53.503Z,62.03
2019-04-25T18:13:24.083Z,62.69
2019-04-25T18:15:55.236Z,63.86
2019-04-25T18:18:39.141Z,64.12
2019-04-25T18:21:08.764Z,64.18
2019-04-25T18:23:55.739Z,63.50
2019-04-25T18:26:32.312Z,63.65
2019-04-25T18:29:06.196Z,64.49
2019-04-25T18:31:37.430Z,64.23
2019-04-25T18:34:11.422Z,64.35
2019-04-25T18:37:00.965Z,65.21
2019-04-25T18:39:35.387Z,65.46
2019-04-25T18:42:23.686Z,65.58
2019-04-25T18:44:53.258Z,66.19
2019-04-25T18:47:22.762Z,65.78
2019-04-25T18:49:52.413Z,66.73
2019-04-25T18:52:26.233Z,66.51
2019-04-25T18:55:00.243Z,68.16
2019-04-25T18:57:33.994Z,67.93
2019-04-25T19:00:05.812Z,70.54
2019-04-25T19:02:46.049Z,73.53
2019-04-25T19:05:20.084Z,76.37
2019-04-25T19:07:49.636Z,81.71
2019-04-25T19:10:19.327Z,79.75
2019-04-25T19:12:49.043Z,81.79
2019-04-25T19:15:19.129Z,86.41
2019-04-25T19:17:48.724Z,85.85
2019-04-25T19:20:18.352Z,88.54
2019-04-25T19:22:48.315Z,88.76
2019-04-25T19:25:17.991Z,85.44
2019-04-25T19:27:47.607Z,84.62
2019-04-25T19:30:19.017Z,86.31
2019-04-25T19:32:49.108Z,87.35
2019-04-25T19:35:18.770Z,85.30
2019-04-25T19:37:48.573Z,87.38
2019-04-25T19:40:20.021Z,87.60
2019-04-25T19:42:54.010Z,89.81
2019-04-25T19:45:23.627Z,87.23
2019-04-25T19:47:53.185Z,86.05
2019-04-25T19:50:22.779Z,86.38
2019-04-25T19:52:52.403Z,87.79
2019-04-25T19:55:21.955Z,86.58
2019-04-25T19:57:52.449Z,87.77
2019-04-25T20:00:22.722Z,86.30
2019-04-25T20:02:56.525Z,88.39
2019-04-25T20:05:33.574Z,86.00
2019-04-25T20:08:04.854Z,86.13
2019-04-25T20:10:51.631Z,88.83
2019-04-25T20:13:21.182Z,88.75
2019-04-25T20:15:51.744Z,87.67
2019-04-25T20:18:21.278Z,88.14
2019-04-25T20:20:50.748Z,87.49
2019-04-25T20:23:20.333Z,88.84
2019-04-25T20:25:50.704Z,92.49
2019-04-25T20:28:20.346Z,93.52
2019-04-25T20:30:49.862Z,93.72
2019-04-25T20:33:19.523Z,96.15
2019-04-25T20:35:49.046Z,98.34
2019-04-25T20:38:18.661Z,100.00
2019-04-25T20:40:48.230Z,100.00
2019-04-25T20:43:17.757Z,100.00
2019-04-25T20:45:48.253Z,100.00
2019-04-25T20:48:17.879Z,100.00
2019-04-25T20:50:48.283Z,100.00
2019-04-25T20:53:17.847Z,100.00
2019-04-25T20:55:47.500Z,100.00
2019-04-25T20:58:17.115Z,100.00
2019-04-25T21:00:49.549Z,100.00
2019-04-25T21:03:19.150Z,100.00
2019-04-25T21:05:51.038Z,100.00
2019-04-25T21:08:20.619Z,100.00
2019-04-25T21:10:50.684Z,100.00
2019-04-25T21:13:22.802Z,100.00
2019-04-25T21:15:56.895Z,100.00
2019-04-25T21:18:30.846Z,100.00
2019-04-25T21:21:01.258Z,100.00
2019-04-25T21:23:30.860Z,100.00
2019-04-25T21:26:01.240Z,100.00
2019-04-25T21:28:30.745Z,100.00
2019-04-25T21:31:02.410Z,100.00
2019-04-25T21:33:31.526Z,100.00
2019-04-25T21:36:01.575Z,100.00
2019-04-25T21:38:31.535Z,100.00
2019-04-25T21:41:02.757Z,100.00
2019-04-25T21:43:34.103Z,100.00
2019-04-25T21:46:03.976Z,100.00
2019-04-25T21:48:33.739Z,100.00
2019-04-25T21:51:05.149Z,100.00
2019-04-25T21:53:34.673Z,100.00
2019-04-25T21:56:04.344Z,100.00
2019-04-25T21:58:33.827Z,100.00
2019-04-25T22:01:05.397Z,100.00
2019-04-25T22:03:34.945Z,100.00
2019-04-25T22:06:05.099Z,100.00
2019-04-25T22:08:34.683Z,100.00
2019-04-25T22:11:04.281Z,100.00
2019-04-25T22:13:34.871Z,100.00
2019-04-25T22:16:05.873Z,100.00
2019-04-25T22:18:35.757Z,100.00
2019-04-25T22:21:05.454Z,100.00
2019-04-25T22:23:36.036Z,100.00
2019-04-25T22:26:05.932Z,100.00
2019-04-25T22:28:36.442Z,100.00
2019-04-25T22:31:10.747Z,100.00
2019-04-25T22:33:44.578Z,100.00
2019-04-25T22:36:15.990Z,100.00
2019-04-25T22:38:47.213Z,100.00
2019-04-25T22:41:16.776Z,100.00
2019-04-25T22:43:48.208Z,100.00
2019-04-25T22:46:25.687Z,100.00
2019-04-25T22:48:49.224Z,100.00
2019-04-25T22:51:19.165Z,100.00
2019-04-25T22:53:48.800Z,100.00
2019-04-25T22:56:18.341Z,100.00
2019-04-25T22:58:47.930Z,100.00
2019-04-25T23:01:19.371Z,100.00
2019-04-25T23:03:50.508Z,100.00
2019-04-25T23:06:20.207Z,100.00
2019-04-25T23:08:49.713Z,100.00
2019-04-25T23:11:19.202Z,100.00
2019-04-25T23:13:48.793Z,100.00
2019-04-25T23:16:18.465Z,100.00
2019-04-25T23:18:47.979Z,100.00
2019-04-25T23:21:17.455Z,100.00
2019-04-25T23:23:46.968Z,100.00
2019-04-25T23:26:22.031Z,100.00
2019-04-25T23:28:56.200Z,100.00
2019-04-25T23:31:27.361Z,100.00
2019-04-25T23:33:57.223Z,100.00
2019-04-25T23:36:26.728Z,100.00
2019-04-25T23:38:56.285Z,100.00
2019-04-25T23:41:25.973Z,100.00
2019-04-25T23:43:55.470Z,100.00
2019-04-25T23:46:25.169Z,100.00
2019-04-25T23:48:54.654Z,100.00
2019-04-25T23:51:24.139Z,100.00
2019-04-25T23:53:53.932Z,100.00
2019-04-25T23:56:23.493Z,100.00
2019-04-25T23:58:53.156Z,100.00
